sensor_id;sensor_type;location;lat;lon;timestamp;P1;durP1;ratioP1;P2;durP2;ratioP2
10122;SDS011;5101;49.038;8.710;2023-04-25T00:00:29;3.47;;;2.58;;
10122;SDS011;5101;49.038;8.710;2023-04-25T00:02:55;2.60;;;2.40;;
10122;SDS011;5101;49.038;8.710;2023-04-25T00:05:21;3.47;;;2.80;;
10122;SDS011;5101;49.038;8.710;2023-04-25T00:07:48;2.80;;;2.60;;
10122;SDS011;5101;49.038;8.710;2023-04-25T00:10:14;2.38;;;2.17;;
10122;SDS011;5101;49.038;8.710;2023-04-25T00:12:40;2.78;;;2.58;;
10122;SDS011;5101;49.038;8.710;2023-04-25T00:15:06;2.55;;;2.22;;
10122;SDS011;5101;49.038;8.710;2023-04-25T00:17:32;2.55;;;2.35;;
10122;SDS011;5101;49.038;8.710;2023-04-25T00:19:57;2.97;;;2.38;;
10122;SDS011;5101;49.038;8.710;2023-04-25T00:22:23;3.50;;;2.40;;
10122;SDS011;5101;49.038;8.710;2023-04-25T00:24:48;2.40;;;2.20;;
10122;SDS011;5101;49.038;8.710;2023-04-25T00:27:15;2.50;;;2.30;;
10122;SDS011;5101;49.038;8.710;2023-04-25T00:29:40;3.05;;;2.45;;
10122;SDS011;5101;49.038;8.710;2023-04-25T00:32:06;2.70;;;2.30;;
10122;SDS011;5101;49.038;8.710;2023-04-25T00:34:31;2.65;;;2.30;;
10122;SDS011;5101;49.038;8.710;2023-04-25T00:36:57;2.72;;;2.30;;
10122;SDS011;5101;49.038;8.710;2023-04-25T00:39:22;3.85;;;2.17;;
10122;SDS011;5101;49.038;8.710;2023-04-25T00:41:48;2.60;;;2.40;;
10122;SDS011;5101;49.038;8.710;2023-04-25T00:44:18;2.45;;;2.25;;
10122;SDS011;5101;49.038;8.710;2023-04-25T00:46:43;3.03;;;2.13;;
10122;SDS011;5101;49.038;8.710;2023-04-25T00:49:10;3.45;;;2.58;;
10122;SDS011;5101;49.038;8.710;2023-04-25T00:51:40;2.85;;;2.13;;
10122;SDS011;5101;49.038;8.710;2023-04-25T00:54:05;2.28;;;2.10;;
10122;SDS011;5101;49.038;8.710;2023-04-25T00:56:31;2.13;;;1.92;;
10122;SDS011;5101;49.038;8.710;2023-04-25T00:58:57;5.20;;;2.30;;
10122;SDS011;5101;49.038;8.710;2023-04-25T01:01:23;2.35;;;2.00;;
10122;SDS011;5101;49.038;8.710;2023-04-25T01:03:49;2.47;;;2.28;;
10122;SDS011;5101;49.038;8.710;2023-04-25T01:06:16;3.80;;;2.40;;
10122;SDS011;5101;49.038;8.710;2023-04-25T01:08:41;2.50;;;2.30;;
10122;SDS011;5101;49.038;8.710;2023-04-25T01:11:07;2.83;;;2.55;;
10122;SDS011;5101;49.038;8.710;2023-04-25T01:13:33;2.70;;;2.50;;
10122;SDS011;5101;49.038;8.710;2023-04-25T01:15:59;5.03;;;2.10;;
10122;SDS011;5101;49.038;8.710;2023-04-25T01:18:25;3.65;;;2.30;;
10122;SDS011;5101;49.038;8.710;2023-04-25T01:20:52;2.40;;;2.20;;
10122;SDS011;5101;49.038;8.710;2023-04-25T01:23:21;2.58;;;2.38;;
10122;SDS011;5101;49.038;8.710;2023-04-25T01:25:50;2.47;;;2.28;;
10122;SDS011;5101;49.038;8.710;2023-04-25T01:28:16;2.40;;;1.88;;
10122;SDS011;5101;49.038;8.710;2023-04-25T01:30:41;2.03;;;1.92;;
10122;SDS011;5101;49.038;8.710;2023-04-25T01:33:08;2.53;;;1.98;;
10122;SDS011;5101;49.038;8.710;2023-04-25T01:35:33;1.90;;;1.80;;
10122;SDS011;5101;49.038;8.710;2023-04-25T01:37:59;2.30;;;1.90;;
10122;SDS011;5101;49.038;8.710;2023-04-25T01:40:25;3.55;;;2.00;;
10122;SDS011;5101;49.038;8.710;2023-04-25T01:42:53;1.90;;;1.80;;
10122;SDS011;5101;49.038;8.710;2023-04-25T01:45:19;1.90;;;1.80;;
10122;SDS011;5101;49.038;8.710;2023-04-25T01:47:45;2.08;;;1.98;;
10122;SDS011;5101;49.038;8.710;2023-04-25T01:50:14;2.63;;;2.00;;
10122;SDS011;5101;49.038;8.710;2023-04-25T01:52:40;2.00;;;1.80;;
10122;SDS011;5101;49.038;8.710;2023-04-25T01:55:06;1.83;;;1.73;;
10122;SDS011;5101;49.038;8.710;2023-04-25T01:57:31;2.00;;;1.90;;
10122;SDS011;5101;49.038;8.710;2023-04-25T01:59:58;1.65;;;1.55;;
10122;SDS011;5101;49.038;8.710;2023-04-25T02:02:25;1.92;;;1.70;;
10122;SDS011;5101;49.038;8.710;2023-04-25T02:04:51;2.83;;;1.60;;
10122;SDS011;5101;49.038;8.710;2023-04-25T02:07:17;1.88;;;1.77;;
10122;SDS011;5101;49.038;8.710;2023-04-25T02:09:42;3.17;;;1.98;;
10122;SDS011;5101;49.038;8.710;2023-04-25T02:12:09;2.50;;;1.90;;
10122;SDS011;5101;49.038;8.710;2023-04-25T02:14:35;2.42;;;2.22;;
10122;SDS011;5101;49.038;8.710;2023-04-25T02:17:00;3.00;;;2.10;;
10122;SDS011;5101;49.038;8.710;2023-04-25T02:19:26;3.75;;;1.92;;
10122;SDS011;5101;49.038;8.710;2023-04-25T02:21:51;3.47;;;2.10;;
10122;SDS011;5101;49.038;8.710;2023-04-25T02:24:17;2.55;;;2.22;;
10122;SDS011;5101;49.038;8.710;2023-04-25T02:26:42;2.15;;;2.00;;
10122;SDS011;5101;49.038;8.710;2023-04-25T02:29:09;3.17;;;2.22;;
10122;SDS011;5101;49.038;8.710;2023-04-25T02:31:35;2.40;;;2.20;;
10122;SDS011;5101;49.038;8.710;2023-04-25T02:34:00;2.03;;;1.88;;
10122;SDS011;5101;49.038;8.710;2023-04-25T02:36:26;2.42;;;2.30;;
10122;SDS011;5101;49.038;8.710;2023-04-25T02:38:52;2.60;;;2.40;;
10122;SDS011;5101;49.038;8.710;2023-04-25T02:41:18;5.80;;;2.50;;
10122;SDS011;5101;49.038;8.710;2023-04-25T02:43:43;3.00;;;2.80;;
10122;SDS011;5101;49.038;8.710;2023-04-25T02:46:10;2.75;;;2.55;;
10122;SDS011;5101;49.038;8.710;2023-04-25T02:48:35;2.72;;;2.53;;
10122;SDS011;5101;49.038;8.710;2023-04-25T02:51:01;2.95;;;2.72;;
10122;SDS011;5101;49.038;8.710;2023-04-25T02:53:26;3.00;;;2.70;;
10122;SDS011;5101;49.038;8.710;2023-04-25T02:55:52;3.05;;;2.85;;
10122;SDS011;5101;49.038;8.710;2023-04-25T02:58:17;3.15;;;2.40;;
10122;SDS011;5101;49.038;8.710;2023-04-25T03:00:43;3.30;;;2.95;;
10122;SDS011;5101;49.038;8.710;2023-04-25T03:03:09;3.45;;;3.22;;
10122;SDS011;5101;49.038;8.710;2023-04-25T03:05:34;3.40;;;3.15;;
10122;SDS011;5101;49.038;8.710;2023-04-25T03:08:00;3.10;;;2.80;;
10122;SDS011;5101;49.038;8.710;2023-04-25T03:10:25;3.42;;;3.13;;
10122;SDS011;5101;49.038;8.710;2023-04-25T03:12:51;3.60;;;3.30;;
10122;SDS011;5101;49.038;8.710;2023-04-25T03:15:16;3.78;;;3.47;;
10122;SDS011;5101;49.038;8.710;2023-04-25T03:17:42;3.78;;;3.47;;
10122;SDS011;5101;49.038;8.710;2023-04-25T03:20:08;3.67;;;3.25;;
10122;SDS011;5101;49.038;8.710;2023-04-25T03:22:35;5.68;;;3.50;;
10122;SDS011;5101;49.038;8.710;2023-04-25T03:25:00;3.78;;;3.30;;
10122;SDS011;5101;49.038;8.710;2023-04-25T03:27:26;3.45;;;3.15;;
10122;SDS011;5101;49.038;8.710;2023-04-25T03:29:51;4.20;;;3.80;;
10122;SDS011;5101;49.038;8.710;2023-04-25T03:32:17;4.00;;;3.33;;
10122;SDS011;5101;49.038;8.710;2023-04-25T03:34:42;4.40;;;3.22;;
10122;SDS011;5101;49.038;8.710;2023-04-25T03:37:07;3.05;;;2.75;;
10122;SDS011;5101;49.038;8.710;2023-04-25T03:39:33;3.58;;;3.28;;
10122;SDS011;5101;49.038;8.710;2023-04-25T03:41:58;3.45;;;3.15;;
10122;SDS011;5101;49.038;8.710;2023-04-25T03:44:24;3.38;;;3.08;;
10122;SDS011;5101;49.038;8.710;2023-04-25T03:46:50;3.20;;;2.92;;
10122;SDS011;5101;49.038;8.710;2023-04-25T03:49:16;3.50;;;3.30;;
10122;SDS011;5101;49.038;8.710;2023-04-25T03:51:41;3.25;;;2.95;;
10122;SDS011;5101;49.038;8.710;2023-04-25T03:54:07;2.95;;;2.75;;
10122;SDS011;5101;49.038;8.710;2023-04-25T03:56:32;3.35;;;3.10;;
10122;SDS011;5101;49.038;8.710;2023-04-25T03:58:58;3.63;;;3.00;;
10122;SDS011;5101;49.038;8.710;2023-04-25T04:01:23;3.60;;;3.10;;
10122;SDS011;5101;49.038;8.710;2023-04-25T04:03:49;3.28;;;2.97;;
10122;SDS011;5101;49.038;8.710;2023-04-25T04:06:14;4.03;;;3.30;;
10122;SDS011;5101;49.038;8.710;2023-04-25T04:08:40;3.33;;;3.10;;
10122;SDS011;5101;49.038;8.710;2023-04-25T04:11:05;3.63;;;3.33;;
10122;SDS011;5101;49.038;8.710;2023-04-25T04:13:31;4.07;;;3.00;;
10122;SDS011;5101;49.038;8.710;2023-04-25T04:15:56;3.47;;;3.17;;
10122;SDS011;5101;49.038;8.710;2023-04-25T04:18:22;4.25;;;3.58;;
10122;SDS011;5101;49.038;8.710;2023-04-25T04:20:47;2.88;;;2.67;;
10122;SDS011;5101;49.038;8.710;2023-04-25T04:23:13;5.40;;;3.63;;
10122;SDS011;5101;49.038;8.710;2023-04-25T04:25:39;3.08;;;2.88;;
10122;SDS011;5101;49.038;8.710;2023-04-25T04:28:05;3.78;;;3.42;;
10122;SDS011;5101;49.038;8.710;2023-04-25T04:30:31;3.70;;;3.00;;
10122;SDS011;5101;49.038;8.710;2023-04-25T04:32:58;4.32;;;3.60;;
10122;SDS011;5101;49.038;8.710;2023-04-25T04:35:25;3.83;;;3.55;;
10122;SDS011;5101;49.038;8.710;2023-04-25T04:37:51;3.80;;;3.50;;
10122;SDS011;5101;49.038;8.710;2023-04-25T04:40:16;3.72;;;3.30;;
10122;SDS011;5101;49.038;8.710;2023-04-25T04:42:42;4.05;;;3.60;;
10122;SDS011;5101;49.038;8.710;2023-04-25T04:45:10;3.67;;;2.97;;
10122;SDS011;5101;49.038;8.710;2023-04-25T04:47:36;3.10;;;2.90;;
10122;SDS011;5101;49.038;8.710;2023-04-25T04:50:02;3.33;;;3.03;;
10122;SDS011;5101;49.038;8.710;2023-04-25T04:52:29;3.50;;;3.03;;
10122;SDS011;5101;49.038;8.710;2023-04-25T04:54:54;7.80;;;3.80;;
10122;SDS011;5101;49.038;8.710;2023-04-25T04:57:20;3.50;;;3.20;;
10122;SDS011;5101;49.038;8.710;2023-04-25T04:59:45;3.80;;;3.50;;
10122;SDS011;5101;49.038;8.710;2023-04-25T05:02:11;3.63;;;3.15;;
10122;SDS011;5101;49.038;8.710;2023-04-25T05:04:36;5.78;;;3.92;;
10122;SDS011;5101;49.038;8.710;2023-04-25T05:07:02;3.70;;;3.40;;
10122;SDS011;5101;49.038;8.710;2023-04-25T05:09:27;3.95;;;3.65;;
10122;SDS011;5101;49.038;8.710;2023-04-25T05:11:53;5.18;;;3.20;;
10122;SDS011;5101;49.038;8.710;2023-04-25T05:14:18;3.55;;;3.25;;
10122;SDS011;5101;49.038;8.710;2023-04-25T05:16:44;3.55;;;3.22;;
10122;SDS011;5101;49.038;8.710;2023-04-25T05:19:10;3.42;;;3.00;;
10122;SDS011;5101;49.038;8.710;2023-04-25T05:21:35;3.35;;;3.10;;
10122;SDS011;5101;49.038;8.710;2023-04-25T05:24:01;3.67;;;3.33;;
10122;SDS011;5101;49.038;8.710;2023-04-25T05:26:26;3.60;;;3.30;;
10122;SDS011;5101;49.038;8.710;2023-04-25T05:28:55;4.82;;;3.47;;
10122;SDS011;5101;49.038;8.710;2023-04-25T05:31:22;3.88;;;3.58;;
10122;SDS011;5101;49.038;8.710;2023-04-25T05:33:47;3.85;;;3.50;;
10122;SDS011;5101;49.038;8.710;2023-04-25T05:36:12;3.88;;;3.58;;
10122;SDS011;5101;49.038;8.710;2023-04-25T05:38:38;4.20;;;3.45;;
10122;SDS011;5101;49.038;8.710;2023-04-25T05:41:03;4.10;;;3.67;;
10122;SDS011;5101;49.038;8.710;2023-04-25T05:43:29;3.88;;;3.42;;
10122;SDS011;5101;49.038;8.710;2023-04-25T05:45:54;4.43;;;3.13;;
10122;SDS011;5101;49.038;8.710;2023-04-25T05:48:20;5.20;;;3.42;;
10122;SDS011;5101;49.038;8.710;2023-04-25T05:50:45;6.25;;;3.85;;
10122;SDS011;5101;49.038;8.710;2023-04-25T05:53:11;3.63;;;3.38;;
10122;SDS011;5101;49.038;8.710;2023-04-25T05:55:37;6.03;;;4.00;;
10122;SDS011;5101;49.038;8.710;2023-04-25T05:58:02;5.95;;;4.40;;
10122;SDS011;5101;49.038;8.710;2023-04-25T06:00:27;4.18;;;3.78;;
10122;SDS011;5101;49.038;8.710;2023-04-25T06:02:53;3.58;;;3.28;;
10122;SDS011;5101;49.038;8.710;2023-04-25T06:05:19;3.38;;;3.17;;
10122;SDS011;5101;49.038;8.710;2023-04-25T06:07:45;3.13;;;2.88;;
10122;SDS011;5101;49.038;8.710;2023-04-25T06:10:10;2.88;;;2.67;;
10122;SDS011;5101;49.038;8.710;2023-04-25T06:12:36;3.10;;;2.80;;
10122;SDS011;5101;49.038;8.710;2023-04-25T06:15:03;3.60;;;3.08;;
10122;SDS011;5101;49.038;8.710;2023-04-25T06:17:29;3.65;;;2.72;;
10122;SDS011;5101;49.038;8.710;2023-04-25T06:19:55;2.65;;;2.45;;
10122;SDS011;5101;49.038;8.710;2023-04-25T06:22:20;2.70;;;2.50;;
10122;SDS011;5101;49.038;8.710;2023-04-25T06:24:46;2.88;;;2.63;;
10122;SDS011;5101;49.038;8.710;2023-04-25T06:27:12;2.60;;;2.40;;
10122;SDS011;5101;49.038;8.710;2023-04-25T06:29:37;4.50;;;2.65;;
10122;SDS011;5101;49.038;8.710;2023-04-25T06:32:03;2.60;;;2.40;;
10122;SDS011;5101;49.038;8.710;2023-04-25T06:34:28;3.63;;;2.92;;
10122;SDS011;5101;49.038;8.710;2023-04-25T06:36:54;2.33;;;2.20;;
10122;SDS011;5101;49.038;8.710;2023-04-25T06:39:20;3.38;;;2.63;;
10122;SDS011;5101;49.038;8.710;2023-04-25T06:41:48;2.80;;;2.60;;
10122;SDS011;5101;49.038;8.710;2023-04-25T06:44:13;3.50;;;2.70;;
10122;SDS011;5101;49.038;8.710;2023-04-25T06:46:40;2.67;;;2.45;;
10122;SDS011;5101;49.038;8.710;2023-04-25T06:49:05;3.75;;;2.50;;
10122;SDS011;5101;49.038;8.710;2023-04-25T06:51:31;2.90;;;2.70;;
10122;SDS011;5101;49.038;8.710;2023-04-25T06:53:57;4.38;;;3.13;;
10122;SDS011;5101;49.038;8.710;2023-04-25T06:56:22;3.15;;;2.95;;
10122;SDS011;5101;49.038;8.710;2023-04-25T06:58:48;3.38;;;3.08;;
10122;SDS011;5101;49.038;8.710;2023-04-25T07:01:14;3.22;;;3.00;;
10122;SDS011;5101;49.038;8.710;2023-04-25T07:03:39;3.58;;;3.28;;
10122;SDS011;5101;49.038;8.710;2023-04-25T07:06:05;3.72;;;3.40;;
10122;SDS011;5101;49.038;8.710;2023-04-25T07:08:31;3.45;;;3.25;;
10122;SDS011;5101;49.038;8.710;2023-04-25T07:10:56;3.58;;;3.38;;
10122;SDS011;5101;49.038;8.710;2023-04-25T07:13:22;3.80;;;3.50;;
10122;SDS011;5101;49.038;8.710;2023-04-25T07:15:47;5.30;;;3.67;;
10122;SDS011;5101;49.038;8.710;2023-04-25T07:18:13;3.47;;;3.17;;
10122;SDS011;5101;49.038;8.710;2023-04-25T07:20:39;4.38;;;3.55;;
10122;SDS011;5101;49.038;8.710;2023-04-25T07:23:04;5.28;;;3.80;;
10122;SDS011;5101;49.038;8.710;2023-04-25T07:25:30;4.00;;;3.70;;
10122;SDS011;5101;49.038;8.710;2023-04-25T07:27:56;4.82;;;3.65;;
10122;SDS011;5101;49.038;8.710;2023-04-25T07:30:21;4.30;;;3.90;;
10122;SDS011;5101;49.038;8.710;2023-04-25T07:32:47;3.88;;;3.58;;
10122;SDS011;5101;49.038;8.710;2023-04-25T07:35:14;4.45;;;4.00;;
10122;SDS011;5101;49.038;8.710;2023-04-25T07:37:40;4.40;;;4.10;;
10122;SDS011;5101;49.038;8.710;2023-04-25T07:40:05;5.95;;;4.18;;
10122;SDS011;5101;49.038;8.710;2023-04-25T07:42:32;4.25;;;3.88;;
10122;SDS011;5101;49.038;8.710;2023-04-25T07:44:58;4.95;;;4.45;;
10122;SDS011;5101;49.038;8.710;2023-04-25T07:47:23;4.72;;;4.32;;
10122;SDS011;5101;49.038;8.710;2023-04-25T07:49:49;4.57;;;4.18;;
10122;SDS011;5101;49.038;8.710;2023-04-25T07:52:15;4.53;;;3.95;;
10122;SDS011;5101;49.038;8.710;2023-04-25T07:54:40;4.82;;;4.43;;
10122;SDS011;5101;49.038;8.710;2023-04-25T07:57:06;5.45;;;4.22;;
10122;SDS011;5101;49.038;8.710;2023-04-25T07:59:32;4.45;;;4.05;;
10122;SDS011;5101;49.038;8.710;2023-04-25T08:01:57;4.18;;;3.78;;
10122;SDS011;5101;49.038;8.710;2023-04-25T08:04:23;4.47;;;4.18;;
10122;SDS011;5101;49.038;8.710;2023-04-25T08:06:50;4.93;;;4.50;;
10122;SDS011;5101;49.038;8.710;2023-04-25T08:09:15;5.22;;;4.57;;
10122;SDS011;5101;49.038;8.710;2023-04-25T08:11:41;5.25;;;4.75;;
10122;SDS011;5101;49.038;8.710;2023-04-25T08:14:07;5.10;;;4.70;;
10122;SDS011;5101;49.038;8.710;2023-04-25T08:16:33;4.80;;;4.40;;
10122;SDS011;5101;49.038;8.710;2023-04-25T08:19:01;5.72;;;5.22;;
10122;SDS011;5101;49.038;8.710;2023-04-25T08:21:27;6.30;;;5.53;;
10122;SDS011;5101;49.038;8.710;2023-04-25T08:23:53;5.78;;;5.20;;
10122;SDS011;5101;49.038;8.710;2023-04-25T08:26:18;5.53;;;5.03;;
10122;SDS011;5101;49.038;8.710;2023-04-25T08:28:44;5.30;;;4.90;;
10122;SDS011;5101;49.038;8.710;2023-04-25T08:31:09;4.85;;;4.50;;
10122;SDS011;5101;49.038;8.710;2023-04-25T08:33:35;5.35;;;4.85;;
10122;SDS011;5101;49.038;8.710;2023-04-25T08:36:01;5.93;;;4.72;;
10122;SDS011;5101;49.038;8.710;2023-04-25T08:38:26;5.43;;;4.78;;
10122;SDS011;5101;49.038;8.710;2023-04-25T08:40:52;6.40;;;5.20;;
10122;SDS011;5101;49.038;8.710;2023-04-25T08:43:20;6.65;;;5.05;;
10122;SDS011;5101;49.038;8.710;2023-04-25T08:45:46;6.30;;;5.70;;
10122;SDS011;5101;49.038;8.710;2023-04-25T08:48:12;6.32;;;5.18;;
10122;SDS011;5101;49.038;8.710;2023-04-25T08:50:45;5.60;;;5.20;;
10122;SDS011;5101;49.038;8.710;2023-04-25T08:53:16;6.35;;;5.75;;
10122;SDS011;5101;49.038;8.710;2023-04-25T08:55:46;6.68;;;5.43;;
10122;SDS011;5101;49.038;8.710;2023-04-25T08:58:12;6.53;;;5.78;;
10122;SDS011;5101;49.038;8.710;2023-04-25T09:00:39;6.10;;;5.60;;
10122;SDS011;5101;49.038;8.710;2023-04-25T09:03:05;4.88;;;3.90;;
10122;SDS011;5101;49.038;8.710;2023-04-25T09:05:32;3.92;;;3.58;;
10122;SDS011;5101;49.038;8.710;2023-04-25T09:07:58;2.97;;;2.78;;
10122;SDS011;5101;49.038;8.710;2023-04-25T09:10:23;3.70;;;2.47;;
10122;SDS011;5101;49.038;8.710;2023-04-25T09:15:56;2.45;;;2.25;;
10122;SDS011;5101;49.038;8.710;2023-04-25T09:18:27;2.10;;;2.00;;
10122;SDS011;5101;49.038;8.710;2023-04-25T09:20:54;2.20;;;2.10;;
10122;SDS011;5101;49.038;8.710;2023-04-25T09:23:21;2.10;;;1.90;;
10122;SDS011;5101;49.038;8.710;2023-04-25T09:25:48;2.67;;;1.75;;
10122;SDS011;5101;49.038;8.710;2023-04-25T09:28:24;2.03;;;1.88;;
10122;SDS011;5101;49.038;8.710;2023-04-25T09:30:54;4.35;;;2.17;;
10122;SDS011;5101;49.038;8.710;2023-04-25T09:33:23;2.17;;;1.95;;
10122;SDS011;5101;49.038;8.710;2023-04-25T09:36:08;2.90;;;2.47;;
10122;SDS011;5101;49.038;8.710;2023-04-25T09:38:43;2.80;;;2.60;;
10122;SDS011;5101;49.038;8.710;2023-04-25T09:41:10;2.47;;;2.28;;
10122;SDS011;5101;49.038;8.710;2023-04-25T09:43:36;2.80;;;2.60;;
10122;SDS011;5101;49.038;8.710;2023-04-25T09:46:07;2.67;;;2.47;;
10122;SDS011;5101;49.038;8.710;2023-04-25T09:48:34;4.45;;;3.42;;
10122;SDS011;5101;49.038;8.710;2023-04-25T09:53:38;4.05;;;3.70;;
10122;SDS011;5101;49.038;8.710;2023-04-25T09:56:05;4.85;;;4.22;;
10122;SDS011;5101;49.038;8.710;2023-04-25T09:58:32;5.18;;;4.68;;
10122;SDS011;5101;49.038;8.710;2023-04-25T10:00:59;6.25;;;4.78;;
10122;SDS011;5101;49.038;8.710;2023-04-25T10:03:27;6.30;;;5.70;;
10122;SDS011;5101;49.038;8.710;2023-04-25T10:05:55;9.38;;;5.90;;
10122;SDS011;5101;49.038;8.710;2023-04-25T10:08:23;7.50;;;6.43;;
10122;SDS011;5101;49.038;8.710;2023-04-25T10:10:51;9.45;;;6.22;;
10122;SDS011;5101;49.038;8.710;2023-04-25T10:13:17;7.30;;;5.65;;
10122;SDS011;5101;49.038;8.710;2023-04-25T10:15:43;6.47;;;5.65;;
10122;SDS011;5101;49.038;8.710;2023-04-25T10:18:09;10.52;;;6.30;;
10122;SDS011;5101;49.038;8.710;2023-04-25T10:20:35;8.85;;;6.70;;
10122;SDS011;5101;49.038;8.710;2023-04-25T10:23:03;7.72;;;6.63;;
10122;SDS011;5101;49.038;8.710;2023-04-25T10:25:36;9.25;;;5.75;;
10122;SDS011;5101;49.038;8.710;2023-04-25T10:28:03;8.02;;;5.45;;
10122;SDS011;5101;49.038;8.710;2023-04-25T10:30:28;9.18;;;6.50;;
10122;SDS011;5101;49.038;8.710;2023-04-25T10:32:55;6.32;;;5.50;;
10122;SDS011;5101;49.038;8.710;2023-04-25T10:35:25;8.73;;;5.07;;
10122;SDS011;5101;49.038;8.710;2023-04-25T10:40:38;8.00;;;5.78;;
10122;SDS011;5101;49.038;8.710;2023-04-25T10:45:59;9.63;;;5.90;;
10122;SDS011;5101;49.038;8.710;2023-04-25T10:48:25;6.35;;;5.45;;
10122;SDS011;5101;49.038;8.710;2023-04-25T10:51:11;8.38;;;5.90;;
10122;SDS011;5101;49.038;8.710;2023-04-25T10:53:40;8.13;;;6.18;;
10122;SDS011;5101;49.038;8.710;2023-04-25T10:56:18;8.75;;;6.32;;
10122;SDS011;5101;49.038;8.710;2023-04-25T10:58:46;8.93;;;6.45;;
10122;SDS011;5101;49.038;8.710;2023-04-25T11:01:12;9.32;;;6.90;;
10122;SDS011;5101;49.038;8.710;2023-04-25T11:03:42;10.00;;;6.88;;
10122;SDS011;5101;49.038;8.710;2023-04-25T11:06:18;9.63;;;7.03;;
10122;SDS011;5101;49.038;8.710;2023-04-25T11:08:49;11.70;;;7.05;;
10122;SDS011;5101;49.038;8.710;2023-04-25T11:11:16;8.38;;;6.75;;
10122;SDS011;5101;49.038;8.710;2023-04-25T11:13:42;8.30;;;6.35;;
10122;SDS011;5101;49.038;8.710;2023-04-25T11:16:08;7.82;;;7.03;;
10122;SDS011;5101;49.038;8.710;2023-04-25T11:18:34;9.68;;;7.47;;
10122;SDS011;5101;49.038;8.710;2023-04-25T11:20:59;7.00;;;6.30;;
10122;SDS011;5101;49.038;8.710;2023-04-25T11:23:25;8.68;;;6.53;;
10122;SDS011;5101;49.038;8.710;2023-04-25T11:25:52;7.15;;;6.35;;
10122;SDS011;5101;49.038;8.710;2023-04-25T11:28:20;8.80;;;6.45;;
10122;SDS011;5101;49.038;8.710;2023-04-25T11:30:48;9.52;;;6.30;;
10122;SDS011;5101;49.038;8.710;2023-04-25T11:33:15;6.30;;;5.63;;
10122;SDS011;5101;49.038;8.710;2023-04-25T11:35:41;7.00;;;6.30;;
10122;SDS011;5101;49.038;8.710;2023-04-25T11:38:06;6.18;;;5.57;;
10122;SDS011;5101;49.038;8.710;2023-04-25T11:40:32;7.65;;;5.63;;
10122;SDS011;5101;49.038;8.710;2023-04-25T11:42:59;5.22;;;4.72;;
10122;SDS011;5101;49.038;8.710;2023-04-25T11:45:25;6.40;;;5.28;;
10122;SDS011;5101;49.038;8.710;2023-04-25T11:47:51;6.05;;;5.07;;
10122;SDS011;5101;49.038;8.710;2023-04-25T11:50:17;6.03;;;5.28;;
10122;SDS011;5101;49.038;8.710;2023-04-25T11:52:43;7.03;;;5.70;;
10122;SDS011;5101;49.038;8.710;2023-04-25T11:55:14;7.72;;;5.70;;
10122;SDS011;5101;49.038;8.710;2023-04-25T11:57:41;7.95;;;5.93;;
10122;SDS011;5101;49.038;8.710;2023-04-25T12:02:41;7.20;;;6.32;;
10122;SDS011;5101;49.038;8.710;2023-04-25T12:05:16;8.60;;;6.10;;
10122;SDS011;5101;49.038;8.710;2023-04-25T12:07:42;9.05;;;6.30;;
10122;SDS011;5101;49.038;8.710;2023-04-25T12:10:11;6.18;;;5.57;;
10122;SDS011;5101;49.038;8.710;2023-04-25T12:12:41;7.30;;;6.28;;
10122;SDS011;5101;49.038;8.710;2023-04-25T12:15:11;7.13;;;6.07;;
10122;SDS011;5101;49.038;8.710;2023-04-25T12:17:44;5.70;;;4.70;;
10122;SDS011;5101;49.038;8.710;2023-04-25T12:20:14;8.70;;;5.05;;
10122;SDS011;5101;49.038;8.710;2023-04-25T12:22:42;6.45;;;5.03;;
10122;SDS011;5101;49.038;8.710;2023-04-25T12:25:10;5.30;;;4.80;;
10122;SDS011;5101;49.038;8.710;2023-04-25T12:27:37;5.80;;;4.63;;
10122;SDS011;5101;49.038;8.710;2023-04-25T12:30:03;6.63;;;5.22;;
10122;SDS011;5101;49.038;8.710;2023-04-25T12:32:29;4.90;;;4.50;;
10122;SDS011;5101;49.038;8.710;2023-04-25T12:34:54;4.85;;;4.05;;
10122;SDS011;5101;49.038;8.710;2023-04-25T12:37:20;5.45;;;3.70;;
10122;SDS011;5101;49.038;8.710;2023-04-25T12:39:46;4.60;;;4.20;;
10122;SDS011;5101;49.038;8.710;2023-04-25T12:42:11;4.93;;;4.43;;
10122;SDS011;5101;49.038;8.710;2023-04-25T12:44:37;5.68;;;4.32;;
10122;SDS011;5101;49.038;8.710;2023-04-25T12:47:03;4.78;;;4.13;;
10122;SDS011;5101;49.038;8.710;2023-04-25T12:49:29;5.10;;;4.65;;
10122;SDS011;5101;49.038;8.710;2023-04-25T12:51:54;6.57;;;5.18;;
10122;SDS011;5101;49.038;8.710;2023-04-25T12:54:20;6.88;;;5.00;;
10122;SDS011;5101;49.038;8.710;2023-04-25T12:56:45;5.43;;;4.72;;
10122;SDS011;5101;49.038;8.710;2023-04-25T12:59:11;6.50;;;5.15;;
10122;SDS011;5101;49.038;8.710;2023-04-25T13:01:36;7.35;;;5.28;;
10122;SDS011;5101;49.038;8.710;2023-04-25T13:04:02;5.97;;;4.55;;
10122;SDS011;5101;49.038;8.710;2023-04-25T13:06:28;5.13;;;4.40;;
10122;SDS011;5101;49.038;8.710;2023-04-25T13:08:55;6.47;;;4.05;;
10122;SDS011;5101;49.038;8.710;2023-04-25T13:11:20;5.60;;;4.32;;
10122;SDS011;5101;49.038;8.710;2023-04-25T13:13:46;5.03;;;4.07;;
10122;SDS011;5101;49.038;8.710;2023-04-25T13:16:11;4.38;;;3.97;;
10122;SDS011;5101;49.038;8.710;2023-04-25T13:18:39;8.38;;;4.72;;
10122;SDS011;5101;49.038;8.710;2023-04-25T13:21:04;5.85;;;4.63;;
10122;SDS011;5101;49.038;8.710;2023-04-25T13:23:30;6.13;;;4.80;;
10122;SDS011;5101;49.038;8.710;2023-04-25T13:25:56;5.95;;;5.30;;
10122;SDS011;5101;49.038;8.710;2023-04-25T13:28:26;6.95;;;5.25;;
10122;SDS011;5101;49.038;8.710;2023-04-25T13:30:52;8.07;;;5.80;;
10122;SDS011;5101;49.038;8.710;2023-04-25T13:33:18;8.98;;;5.70;;
10122;SDS011;5101;49.038;8.710;2023-04-25T13:35:45;9.68;;;6.43;;
10122;SDS011;5101;49.038;8.710;2023-04-25T13:38:14;8.02;;;5.40;;
10122;SDS011;5101;49.038;8.710;2023-04-25T13:40:40;5.75;;;5.03;;
10122;SDS011;5101;49.038;8.710;2023-04-25T13:43:05;6.72;;;6.03;;
10122;SDS011;5101;49.038;8.710;2023-04-25T13:45:31;6.13;;;5.28;;
10122;SDS011;5101;49.038;8.710;2023-04-25T13:47:57;6.32;;;5.57;;
10122;SDS011;5101;49.038;8.710;2023-04-25T13:50:22;6.65;;;4.90;;
10122;SDS011;5101;49.038;8.710;2023-04-25T13:52:48;9.27;;;5.03;;
10122;SDS011;5101;49.038;8.710;2023-04-25T13:55:13;7.78;;;5.32;;
10122;SDS011;5101;49.038;8.710;2023-04-25T13:57:39;6.15;;;4.75;;
10122;SDS011;5101;49.038;8.710;2023-04-25T14:00:05;8.45;;;5.68;;
10122;SDS011;5101;49.038;8.710;2023-04-25T14:02:37;5.63;;;5.10;;
10122;SDS011;5101;49.038;8.710;2023-04-25T14:05:03;6.38;;;5.03;;
10122;SDS011;5101;49.038;8.710;2023-04-25T14:07:29;7.38;;;5.65;;
10122;SDS011;5101;49.038;8.710;2023-04-25T14:09:55;5.43;;;4.72;;
10122;SDS011;5101;49.038;8.710;2023-04-25T14:12:22;9.13;;;5.40;;
10122;SDS011;5101;49.038;8.710;2023-04-25T14:14:48;7.10;;;5.10;;
10122;SDS011;5101;49.038;8.710;2023-04-25T14:17:13;8.75;;;5.07;;
10122;SDS011;5101;49.038;8.710;2023-04-25T14:19:39;8.18;;;5.80;;
10122;SDS011;5101;49.038;8.710;2023-04-25T14:22:08;6.07;;;4.70;;
10122;SDS011;5101;49.038;8.710;2023-04-25T14:24:33;5.85;;;4.82;;
10122;SDS011;5101;49.038;8.710;2023-04-25T14:26:59;8.80;;;5.47;;
10122;SDS011;5101;49.038;8.710;2023-04-25T14:29:25;9.25;;;4.72;;
10122;SDS011;5101;49.038;8.710;2023-04-25T14:31:51;7.25;;;5.03;;
10122;SDS011;5101;49.038;8.710;2023-04-25T14:34:16;5.72;;;5.00;;
10122;SDS011;5101;49.038;8.710;2023-04-25T14:36:42;7.25;;;5.07;;
10122;SDS011;5101;49.038;8.710;2023-04-25T14:39:07;5.47;;;4.38;;
10122;SDS011;5101;49.038;8.710;2023-04-25T14:41:33;7.63;;;4.78;;
10122;SDS011;5101;49.038;8.710;2023-04-25T14:43:59;5.82;;;4.38;;
10122;SDS011;5101;49.038;8.710;2023-04-25T14:46:24;7.53;;;4.78;;
10122;SDS011;5101;49.038;8.710;2023-04-25T14:48:50;6.35;;;4.50;;
10122;SDS011;5101;49.038;8.710;2023-04-25T14:51:16;5.45;;;4.03;;
10122;SDS011;5101;49.038;8.710;2023-04-25T14:53:41;4.72;;;3.85;;
10122;SDS011;5101;49.038;8.710;2023-04-25T14:56:07;5.18;;;4.00;;
10122;SDS011;5101;49.038;8.710;2023-04-25T14:58:33;7.50;;;4.32;;
10122;SDS011;5101;49.038;8.710;2023-04-25T15:00:59;6.50;;;4.15;;
10122;SDS011;5101;49.038;8.710;2023-04-25T15:03:25;5.57;;;4.18;;
10122;SDS011;5101;49.038;8.710;2023-04-25T15:05:51;5.65;;;4.07;;
10122;SDS011;5101;49.038;8.710;2023-04-25T15:08:17;4.40;;;3.70;;